sensor_id;sensor_type;location;lat;lon;timestamp;temperature;humidity
52889;DHT22;41413;52.770;6.892;2022-12-18T00:02:12;-3.90;99.90
52889;DHT22;41413;52.770;6.892;2022-12-18T00:04:39;-3.90;99.90
52889;DHT22;41413;52.770;6.892;2022-12-18T00:07:05;-3.90;99.90
52889;DHT22;41413;52.770;6.892;2022-12-18T00:09:32;-4.00;99.90
52889;DHT22;41413;52.770;6.892;2022-12-18T00:12:06;-3.90;99.90
52889;DHT22;41413;52.770;6.892;2022-12-18T00:14:44;-4.00;99.90
52889;DHT22;41413;52.770;6.892;2022-12-18T00:17:11;-4.00;99.90
52889;DHT22;41413;52.770;6.892;2022-12-18T00:19:37;-4.00;99.90
52889;DHT22;41413;52.770;6.892;2022-12-18T00:22:04;-4.00;99.90
52889;DHT22;41413;52.770;6.892;2022-12-18T00:24:32;-4.00;99.90
52889;DHT22;41413;52.770;6.892;2022-12-18T00:26:59;-4.10;99.90
52889;DHT22;41413;52.770;6.892;2022-12-18T00:29:25;-4.10;99.90
52889;DHT22;41413;52.770;6.892;2022-12-18T00:31:52;-4.00;99.90
52889;DHT22;41413;52.770;6.892;2022-12-18T00:34:19;-4.10;99.90
52889;DHT22;41413;52.770;6.892;2022-12-18T00:36:47;-4.10;99.90
52889;DHT22;41413;52.770;6.892;2022-12-18T00:39:14;-4.20;99.90
52889;DHT22;41413;52.770;6.892;2022-12-18T00:41:40;-4.20;99.90
52889;DHT22;41413;52.770;6.892;2022-12-18T00:44:26;-4.30;99.90
52889;DHT22;41413;52.770;6.892;2022-12-18T00:46:52;-4.30;99.90
52889;DHT22;41413;52.770;6.892;2022-12-18T00:49:20;-4.40;99.90
52889;DHT22;41413;52.770;6.892;2022-12-18T00:51:47;-4.40;99.90
52889;DHT22;41413;52.770;6.892;2022-12-18T00:54:14;-4.40;99.90
52889;DHT22;41413;52.770;6.892;2022-12-18T00:56:41;-4.50;99.90
52889;DHT22;41413;52.770;6.892;2022-12-18T00:59:16;-4.50;99.90
52889;DHT22;41413;52.770;6.892;2022-12-18T01:01:43;-4.50;99.90
52889;DHT22;41413;52.770;6.892;2022-12-18T01:04:10;-4.60;99.90
52889;DHT22;41413;52.770;6.892;2022-12-18T01:06:37;-4.60;99.90
52889;DHT22;41413;52.770;6.892;2022-12-18T01:09:04;-4.70;99.90
52889;DHT22;41413;52.770;6.892;2022-12-18T01:11:31;-4.70;99.90
52889;DHT22;41413;52.770;6.892;2022-12-18T01:14:01;-4.70;99.90
52889;DHT22;41413;52.770;6.892;2022-12-18T01:16:27;-4.70;99.90
52889;DHT22;41413;52.770;6.892;2022-12-18T01:18:54;-4.80;99.90
52889;DHT22;41413;52.770;6.892;2022-12-18T01:21:22;-4.80;99.90
52889;DHT22;41413;52.770;6.892;2022-12-18T01:23:54;-4.90;99.90
52889;DHT22;41413;52.770;6.892;2022-12-18T01:26:21;-4.90;99.90
52889;DHT22;41413;52.770;6.892;2022-12-18T01:28:48;-5.00;99.90
52889;DHT22;41413;52.770;6.892;2022-12-18T01:31:16;-5.00;99.90
52889;DHT22;41413;52.770;6.892;2022-12-18T01:33:43;-5.10;99.90
52889;DHT22;41413;52.770;6.892;2022-12-18T01:36:31;-5.10;99.90
52889;DHT22;41413;52.770;6.892;2022-12-18T01:39:05;-5.10;99.90
52889;DHT22;41413;52.770;6.892;2022-12-18T01:41:33;-5.10;99.90
52889;DHT22;41413;52.770;6.892;2022-12-18T01:47:39;-5.10;99.90
52889;DHT22;41413;52.770;6.892;2022-12-18T01:52:35;-5.20;99.90
52889;DHT22;41413;52.770;6.892;2022-12-18T01:55:05;-5.30;99.90
52889;DHT22;41413;52.770;6.892;2022-12-18T01:57:32;-5.40;99.90
52889;DHT22;41413;52.770;6.892;2022-12-18T02:00:03;-5.40;99.90
52889;DHT22;41413;52.770;6.892;2022-12-18T02:02:30;-5.40;99.90
52889;DHT22;41413;52.770;6.892;2022-12-18T02:04:58;-5.50;99.90
52889;DHT22;41413;52.770;6.892;2022-12-18T02:07:50;-5.50;99.90
52889;DHT22;41413;52.770;6.892;2022-12-18T02:16:54;-5.60;99.90
52889;DHT22;41413;52.770;6.892;2022-12-18T02:27:56;-5.60;99.90
52889;DHT22;41413;52.770;6.892;2022-12-18T02:30:24;-5.70;99.90
52889;DHT22;41413;52.770;6.892;2022-12-18T02:32:53;-5.80;99.90
52889;DHT22;41413;52.770;6.892;2022-12-18T02:35:23;-5.80;99.90
52889;DHT22;41413;52.770;6.892;2022-12-18T02:37:54;-5.80;99.90
52889;DHT22;41413;52.770;6.892;2022-12-18T02:40:24;-5.90;99.90
52889;DHT22;41413;52.770;6.892;2022-12-18T02:42:51;-5.90;99.90
52889;DHT22;41413;52.770;6.892;2022-12-18T02:45:20;-6.00;99.90
52889;DHT22;41413;52.770;6.892;2022-12-18T02:47:48;-6.00;99.90
52889;DHT22;41413;52.770;6.892;2022-12-18T02:50:27;-6.00;99.90
52889;DHT22;41413;52.770;6.892;2022-12-18T02:53:03;-6.10;99.90
52889;DHT22;41413;52.770;6.892;2022-12-18T02:58:13;-6.10;99.90
52889;DHT22;41413;52.770;6.892;2022-12-18T03:00:53;-6.10;99.90
52889;DHT22;41413;52.770;6.892;2022-12-18T03:06:28;-6.10;99.90
52889;DHT22;41413;52.770;6.892;2022-12-18T03:09:01;-6.10;99.90
52889;DHT22;41413;52.770;6.892;2022-12-18T03:11:31;-6.10;99.90
52889;DHT22;41413;52.770;6.892;2022-12-18T03:14:19;-6.10;99.90
52889;DHT22;41413;52.770;6.892;2022-12-18T03:16:50;-6.10;99.90
52889;DHT22;41413;52.770;6.892;2022-12-18T03:19:22;-6.20;99.90
52889;DHT22;41413;52.770;6.892;2022-12-18T03:21:54;-6.20;99.90
52889;DHT22;41413;52.770;6.892;2022-12-18T03:24:22;-6.10;99.90
52889;DHT22;41413;52.770;6.892;2022-12-18T03:26:52;-6.20;99.90
52889;DHT22;41413;52.770;6.892;2022-12-18T03:29:33;-6.20;99.90
52889;DHT22;41413;52.770;6.892;2022-12-18T03:32:07;-6.20;99.90
52889;DHT22;41413;52.770;6.892;2022-12-18T03:34:35;-6.20;99.90
52889;DHT22;41413;52.770;6.892;2022-12-18T03:37:04;-6.30;99.90
52889;DHT22;41413;52.770;6.892;2022-12-18T03:39:32;-6.20;99.90
52889;DHT22;41413;52.770;6.892;2022-12-18T03:45:14;-6.20;99.90
52889;DHT22;41413;52.770;6.892;2022-12-18T03:50:39;-6.30;99.90
52889;DHT22;41413;52.770;6.892;2022-12-18T03:55:57;-6.30;99.90
52889;DHT22;41413;52.770;6.892;2022-12-18T03:58:25;-6.30;99.90
52889;DHT22;41413;52.770;6.892;2022-12-18T04:00:55;-6.30;99.90
52889;DHT22;41413;52.770;6.892;2022-12-18T04:03:23;-6.40;99.90
52889;DHT22;41413;52.770;6.892;2022-12-18T04:05:54;-6.20;99.90
52889;DHT22;41413;52.770;6.892;2022-12-18T04:08:21;-6.40;99.90
52889;DHT22;41413;52.770;6.892;2022-12-18T04:10:49;-6.40;99.90
52889;DHT22;41413;52.770;6.892;2022-12-18T04:13:29;-6.40;99.90
52889;DHT22;41413;52.770;6.892;2022-12-18T04:15:56;-6.40;99.90
52889;DHT22;41413;52.770;6.892;2022-12-18T04:18:22;-6.40;99.90
52889;DHT22;41413;52.770;6.892;2022-12-18T04:20:49;-6.40;99.90
52889;DHT22;41413;52.770;6.892;2022-12-18T04:23:16;-6.40;99.90
52889;DHT22;41413;52.770;6.892;2022-12-18T04:25:42;-6.40;99.90
52889;DHT22;41413;52.770;6.892;2022-12-18T04:28:09;-6.50;99.90
52889;DHT22;41413;52.770;6.892;2022-12-18T04:30:36;-6.50;99.90
52889;DHT22;41413;52.770;6.892;2022-12-18T04:33:02;-6.60;99.90
52889;DHT22;41413;52.770;6.892;2022-12-18T04:35:29;-6.60;99.90
52889;DHT22;41413;52.770;6.892;2022-12-18T04:37:56;-6.60;99.90
52889;DHT22;41413;52.770;6.892;2022-12-18T04:40:23;-6.60;99.90
52889;DHT22;41413;52.770;6.892;2022-12-18T04:42:49;-6.70;99.90
52889;DHT22;41413;52.770;6.892;2022-12-18T04:45:16;-6.70;99.90
52889;DHT22;41413;52.770;6.892;2022-12-18T04:47:43;-6.60;99.90
52889;DHT22;41413;52.770;6.892;2022-12-18T04:50:10;-6.60;99.90
52889;DHT22;41413;52.770;6.892;2022-12-18T04:52:37;-6.50;99.90
52889;DHT22;41413;52.770;6.892;2022-12-18T04:55:03;-6.50;99.90
52889;DHT22;41413;52.770;6.892;2022-12-18T04:57:30;-6.50;99.90
52889;DHT22;41413;52.770;6.892;2022-12-18T04:59:57;-6.40;99.90
52889;DHT22;41413;52.770;6.892;2022-12-18T05:02:24;-6.40;99.90
52889;DHT22;41413;52.770;6.892;2022-12-18T05:04:50;-6.50;99.90
52889;DHT22;41413;52.770;6.892;2022-12-18T05:07:17;-6.50;99.90
52889;DHT22;41413;52.770;6.892;2022-12-18T05:09:44;-6.50;99.90
52889;DHT22;41413;52.770;6.892;2022-12-18T05:12:11;-6.60;99.90
52889;DHT22;41413;52.770;6.892;2022-12-18T05:14:37;-6.60;99.90
52889;DHT22;41413;52.770;6.892;2022-12-18T05:17:04;-6.70;99.90
52889;DHT22;41413;52.770;6.892;2022-12-18T05:19:30;-6.70;99.90
52889;DHT22;41413;52.770;6.892;2022-12-18T05:21:57;-6.80;99.90
52889;DHT22;41413;52.770;6.892;2022-12-18T05:24:24;-6.80;99.90
52889;DHT22;41413;52.770;6.892;2022-12-18T05:26:51;-6.80;99.90
52889;DHT22;41413;52.770;6.892;2022-12-18T05:29:17;-6.80;99.90
52889;DHT22;41413;52.770;6.892;2022-12-18T05:31:44;-6.90;99.90
52889;DHT22;41413;52.770;6.892;2022-12-18T05:34:11;-6.80;99.90
52889;DHT22;41413;52.770;6.892;2022-12-18T05:36:38;-6.80;99.90
52889;DHT22;41413;52.770;6.892;2022-12-18T05:39:05;-6.90;99.90
52889;DHT22;41413;52.770;6.892;2022-12-18T05:41:32;-6.90;99.90
52889;DHT22;41413;52.770;6.892;2022-12-18T05:43:59;-6.90;99.90
52889;DHT22;41413;52.770;6.892;2022-12-18T05:46:26;-6.90;99.90
52889;DHT22;41413;52.770;6.892;2022-12-18T05:48:52;-7.00;99.90
52889;DHT22;41413;52.770;6.892;2022-12-18T05:51:21;-7.00;99.90
52889;DHT22;41413;52.770;6.892;2022-12-18T05:53:48;-7.00;99.90
52889;DHT22;41413;52.770;6.892;2022-12-18T05:56:18;-7.00;99.90
52889;DHT22;41413;52.770;6.892;2022-12-18T05:58:46;-7.00;99.90
52889;DHT22;41413;52.770;6.892;2022-12-18T06:01:18;-7.00;99.90
52889;DHT22;41413;52.770;6.892;2022-12-18T06:03:45;-7.00;99.90
52889;DHT22;41413;52.770;6.892;2022-12-18T06:06:24;-7.00;99.90
52889;DHT22;41413;52.770;6.892;2022-12-18T06:08:52;-7.00;99.90
52889;DHT22;41413;52.770;6.892;2022-12-18T06:11:22;-7.00;99.90
52889;DHT22;41413;52.770;6.892;2022-12-18T06:13:50;-7.10;99.90
52889;DHT22;41413;52.770;6.892;2022-12-18T06:16:23;-7.00;99.90
52889;DHT22;41413;52.770;6.892;2022-12-18T06:18:50;-7.00;99.90
52889;DHT22;41413;52.770;6.892;2022-12-18T06:21:17;-7.00;99.90
52889;DHT22;41413;52.770;6.892;2022-12-18T06:23:43;-7.00;99.90
52889;DHT22;41413;52.770;6.892;2022-12-18T06:26:11;-7.00;99.90
52889;DHT22;41413;52.770;6.892;2022-12-18T06:28:39;-7.00;99.90
52889;DHT22;41413;52.770;6.892;2022-12-18T06:31:06;-7.00;99.90
52889;DHT22;41413;52.770;6.892;2022-12-18T06:33:33;-7.00;99.90
52889;DHT22;41413;52.770;6.892;2022-12-18T06:36:11;-7.00;99.90
52889;DHT22;41413;52.770;6.892;2022-12-18T06:38:40;-6.90;99.90
52889;DHT22;41413;52.770;6.892;2022-12-18T06:41:10;-7.00;99.90
52889;DHT22;41413;52.770;6.892;2022-12-18T06:43:37;-7.00;99.90
52889;DHT22;41413;52.770;6.892;2022-12-18T06:46:05;-7.00;99.90
52889;DHT22;41413;52.770;6.892;2022-12-18T06:48:32;-7.10;99.90
52889;DHT22;41413;52.770;6.892;2022-12-18T06:50:59;-7.00;99.90
52889;DHT22;41413;52.770;6.892;2022-12-18T06:53:26;-7.00;99.90
52889;DHT22;41413;52.770;6.892;2022-12-18T06:55:59;-7.00;99.90
52889;DHT22;41413;52.770;6.892;2022-12-18T06:58:32;-7.00;99.90
52889;DHT22;41413;52.770;6.892;2022-12-18T07:01:00;-7.10;99.90
52889;DHT22;41413;52.770;6.892;2022-12-18T07:03:28;-7.10;99.90
52889;DHT22;41413;52.770;6.892;2022-12-18T07:05:54;-7.10;99.90
52889;DHT22;41413;52.770;6.892;2022-12-18T07:08:21;-7.20;99.90
52889;DHT22;41413;52.770;6.892;2022-12-18T07:10:48;-7.10;99.90
52889;DHT22;41413;52.770;6.892;2022-12-18T07:13:21;-7.20;99.90
52889;DHT22;41413;52.770;6.892;2022-12-18T07:15:48;-7.20;99.90
52889;DHT22;41413;52.770;6.892;2022-12-18T07:18:15;-7.20;99.90
52889;DHT22;41413;52.770;6.892;2022-12-18T07:20:41;-7.10;99.90
52889;DHT22;41413;52.770;6.892;2022-12-18T07:23:08;-7.10;99.90
52889;DHT22;41413;52.770;6.892;2022-12-18T07:25:36;-7.20;99.90
52889;DHT22;41413;52.770;6.892;2022-12-18T07:28:04;-7.10;99.90
52889;DHT22;41413;52.770;6.892;2022-12-18T07:30:31;-7.10;99.90
52889;DHT22;41413;52.770;6.892;2022-12-18T07:32:58;-7.10;99.90
52889;DHT22;41413;52.770;6.892;2022-12-18T07:35:24;-7.10;99.90
52889;DHT22;41413;52.770;6.892;2022-12-18T07:37:51;-7.00;99.90
52889;DHT22;41413;52.770;6.892;2022-12-18T07:40:18;-7.00;99.90
52889;DHT22;41413;52.770;6.892;2022-12-18T07:42:45;-6.90;99.90
52889;DHT22;41413;52.770;6.892;2022-12-18T07:45:11;-6.80;99.90
52889;DHT22;41413;52.770;6.892;2022-12-18T07:47:38;-6.80;99.90
52889;DHT22;41413;52.770;6.892;2022-12-18T07:50:05;-6.70;99.90
52889;DHT22;41413;52.770;6.892;2022-12-18T07:52:32;-6.70;99.90
52889;DHT22;41413;52.770;6.892;2022-12-18T07:54:59;-6.60;99.90
52889;DHT22;41413;52.770;6.892;2022-12-18T07:57:26;-6.60;99.90
52889;DHT22;41413;52.770;6.892;2022-12-18T08:00:13;-6.50;99.90
52889;DHT22;41413;52.770;6.892;2022-12-18T08:02:40;-6.40;99.90
52889;DHT22;41413;52.770;6.892;2022-12-18T08:05:08;-6.40;99.90
52889;DHT22;41413;52.770;6.892;2022-12-18T08:07:34;-6.40;99.90
52889;DHT22;41413;52.770;6.892;2022-12-18T08:10:01;-6.30;99.90
52889;DHT22;41413;52.770;6.892;2022-12-18T08:12:29;-6.20;99.90
52889;DHT22;41413;52.770;6.892;2022-12-18T08:14:56;-6.20;99.90
52889;DHT22;41413;52.770;6.892;2022-12-18T08:17:23;-6.20;99.90
52889;DHT22;41413;52.770;6.892;2022-12-18T08:19:50;-6.10;99.90
52889;DHT22;41413;52.770;6.892;2022-12-18T08:22:16;-6.10;99.90
52889;DHT22;41413;52.770;6.892;2022-12-18T08:24:43;-6.00;99.90
52889;DHT22;41413;52.770;6.892;2022-12-18T08:27:09;-6.00;99.90
52889;DHT22;41413;52.770;6.892;2022-12-18T08:29:55;-5.90;99.90
52889;DHT22;41413;52.770;6.892;2022-12-18T08:32:22;-5.80;99.90
52889;DHT22;41413;52.770;6.892;2022-12-18T08:34:49;-5.80;99.90
52889;DHT22;41413;52.770;6.892;2022-12-18T08:37:16;-5.70;99.90
52889;DHT22;41413;52.770;6.892;2022-12-18T08:39:42;-5.70;99.90
52889;DHT22;41413;52.770;6.892;2022-12-18T08:42:09;-5.60;99.90
52889;DHT22;41413;52.770;6.892;2022-12-18T08:44:55;-5.60;99.90
52889;DHT22;41413;52.770;6.892;2022-12-18T08:47:21;-5.60;99.90
52889;DHT22;41413;52.770;6.892;2022-12-18T08:49:48;-5.50;99.90
52889;DHT22;41413;52.770;6.892;2022-12-18T08:52:15;-7.10;99.90
52889;DHT22;41413;52.770;6.892;2022-12-18T08:54:41;-5.30;99.90
52889;DHT22;41413;52.770;6.892;2022-12-18T08:57:08;-5.30;99.90
52889;DHT22;41413;52.770;6.892;2022-12-18T08:59:35;-5.30;99.90
52889;DHT22;41413;52.770;6.892;2022-12-18T09:02:01;-5.20;99.90
52889;DHT22;41413;52.770;6.892;2022-12-18T09:04:28;-5.20;99.90
52889;DHT22;41413;52.770;6.892;2022-12-18T09:06:55;-5.00;99.90
52889;DHT22;41413;52.770;6.892;2022-12-18T09:09:22;-5.00;99.90
52889;DHT22;41413;52.770;6.892;2022-12-18T09:11:48;-4.80;99.90
52889;DHT22;41413;52.770;6.892;2022-12-18T09:14:15;-4.60;99.90
52889;DHT22;41413;52.770;6.892;2022-12-18T09:16:41;-4.40;99.90
52889;DHT22;41413;52.770;6.892;2022-12-18T09:19:13;-4.20;99.90
52889;DHT22;41413;52.770;6.892;2022-12-18T09:21:39;-4.00;99.90
52889;DHT22;41413;52.770;6.892;2022-12-18T09:24:13;-3.80;99.90
52889;DHT22;41413;52.770;6.892;2022-12-18T09:26:40;-3.70;99.90
52889;DHT22;41413;52.770;6.892;2022-12-18T09:29:13;-3.60;99.90
52889;DHT22;41413;52.770;6.892;2022-12-18T09:31:40;-3.70;99.90
52889;DHT22;41413;52.770;6.892;2022-12-18T09:34:07;-3.60;99.90
52889;DHT22;41413;52.770;6.892;2022-12-18T09:36:33;-3.40;99.90
52889;DHT22;41413;52.770;6.892;2022-12-18T09:39:00;-3.20;99.90
52889;DHT22;41413;52.770;6.892;2022-12-18T09:41:52;-2.90;99.90
52889;DHT22;41413;52.770;6.892;2022-12-18T09:44:41;-2.90;99.90
52889;DHT22;41413;52.770;6.892;2022-12-18T09:49:50;-2.90;99.90
52889;DHT22;41413;52.770;6.892;2022-12-18T09:52:33;-3.00;99.90
52889;DHT22;41413;52.770;6.892;2022-12-18T09:57:33;-2.90;99.90
52889;DHT22;41413;52.770;6.892;2022-12-18T10:00:11;-3.00;99.90
52889;DHT22;41413;52.770;6.892;2022-12-18T10:02:41;-2.90;99.90
52889;DHT22;41413;52.770;6.892;2022-12-18T10:05:19;-2.80;99.90
52889;DHT22;41413;52.770;6.892;2022-12-18T10:08:04;-2.70;99.90
52889;DHT22;41413;52.770;6.892;2022-12-18T10:10:43;-2.60;99.90
52889;DHT22;41413;52.770;6.892;2022-12-18T10:13:28;-2.50;99.90
52889;DHT22;41413;52.770;6.892;2022-12-18T10:21:30;-2.50;99.90
52889;DHT22;41413;52.770;6.892;2022-12-18T10:26:28;-2.40;99.90
52889;DHT22;41413;52.770;6.892;2022-12-18T10:28:57;-2.30;99.90
52889;DHT22;41413;52.770;6.892;2022-12-18T10:31:31;-2.30;99.90
52889;DHT22;41413;52.770;6.892;2022-12-18T10:33:57;-2.40;99.90
52889;DHT22;41413;52.770;6.892;2022-12-18T10:36:24;-2.40;99.90
52889;DHT22;41413;52.770;6.892;2022-12-18T10:38:51;-2.50;99.90
52889;DHT22;41413;52.770;6.892;2022-12-18T10:44:16;-2.40;99.90
52889;DHT22;41413;52.770;6.892;2022-12-18T10:46:52;-2.40;99.90
52889;DHT22;41413;52.770;6.892;2022-12-18T10:49:21;-2.30;99.90
52889;DHT22;41413;52.770;6.892;2022-12-18T10:51:49;-2.30;99.90
52889;DHT22;41413;52.770;6.892;2022-12-18T10:54:20;-2.20;99.90
52889;DHT22;41413;52.770;6.892;2022-12-18T10:56:47;-2.10;99.90
52889;DHT22;41413;52.770;6.892;2022-12-18T10:59:16;-2.00;99.90
52889;DHT22;41413;52.770;6.892;2022-12-18T11:01:57;-2.00;99.90
52889;DHT22;41413;52.770;6.892;2022-12-18T11:04:29;-2.10;99.90
52889;DHT22;41413;52.770;6.892;2022-12-18T11:07:05;-2.10;99.90
52889;DHT22;41413;52.770;6.892;2022-12-18T11:09:33;-2.10;99.90
52889;DHT22;41413;52.770;6.892;2022-12-18T11:12:17;-2.20;99.90
52889;DHT22;41413;52.770;6.892;2022-12-18T11:14:49;-2.20;99.90
52889;DHT22;41413;52.770;6.892;2022-12-18T11:17:32;-2.20;99.90
52889;DHT22;41413;52.770;6.892;2022-12-18T11:20:03;-2.20;99.90
52889;DHT22;41413;52.770;6.892;2022-12-18T11:22:34;-2.20;99.90
52889;DHT22;41413;52.770;6.892;2022-12-18T11:25:17;-2.20;99.90
52889;DHT22;41413;52.770;6.892;2022-12-18T11:28:04;-2.20;99.90
52889;DHT22;41413;52.770;6.892;2022-12-18T11:30:34;-2.20;99.90
52889;DHT22;41413;52.770;6.892;2022-12-18T11:33:15;-2.20;99.90
52889;DHT22;41413;52.770;6.892;2022-12-18T11:36:00;-2.10;99.90
52889;DHT22;41413;52.770;6.892;2022-12-18T11:38:33;-2.10;99.90
52889;DHT22;41413;52.770;6.892;2022-12-18T11:41:28;-2.10;99.90
52889;DHT22;41413;52.770;6.892;2022-12-18T11:44:26;-2.10;99.90
52889;DHT22;41413;52.770;6.892;2022-12-18T11:47:04;-2.00;99.90
52889;DHT22;41413;52.770;6.892;2022-12-18T11:49:36;-1.90;99.90
52889;DHT22;41413;52.770;6.892;2022-12-18T11:54:56;-1.90;99.90
52889;DHT22;41413;52.770;6.892;2022-12-18T11:57:39;-1.90;99.90
52889;DHT22;41413;52.770;6.892;2022-12-18T12:00:18;-1.90;99.90
52889;DHT22;41413;52.770;6.892;2022-12-18T12:03:10;-1.90;99.90
52889;DHT22;41413;52.770;6.892;2022-12-18T12:05:57;-1.90;99.90
52889;DHT22;41413;52.770;6.892;2022-12-18T12:11:51;-1.80;99.90
52889;DHT22;41413;52.770;6.892;2022-12-18T12:17:13;-1.70;99.90
52889;DHT22;41413;52.770;6.892;2022-12-18T12:20:13;-1.70;99.90
52889;DHT22;41413;52.770;6.892;2022-12-18T12:23:02;-1.70;99.90
52889;DHT22;41413;52.770;6.892;2022-12-18T12:25:56;-1.60;99.90
52889;DHT22;41413;52.770;6.892;2022-12-18T12:28:44;-1.70;99.90
52889;DHT22;41413;52.770;6.892;2022-12-18T12:34:38;-1.60;99.90
52889;DHT22;41413;52.770;6.892;2022-12-18T12:40:02;-1.60;99.90
52889;DHT22;41413;52.770;6.892;2022-12-18T12:42:59;-1.60;99.90
52889;DHT22;41413;52.770;6.892;2022-12-18T12:48:35;-1.60;99.90
52889;DHT22;41413;52.770;6.892;2022-12-18T12:51:28;-1.60;99.90
52889;DHT22;41413;52.770;6.892;2022-12-18T12:53:57;-1.60;99.90
52889;DHT22;41413;52.770;6.892;2022-12-18T12:56:36;-1.60;99.90
52889;DHT22;41413;52.770;6.892;2022-12-18T12:59:36;-1.60;99.90
52889;DHT22;41413;52.770;6.892;2022-12-18T13:04:56;-1.60;99.90
52889;DHT22;41413;52.770;6.892;2022-12-18T13:07:45;-1.60;99.90
52889;DHT22;41413;52.770;6.892;2022-12-18T13:13:10;-1.50;99.90
52889;DHT22;41413;52.770;6.892;2022-12-18T13:15:41;-1.50;99.90
52889;DHT22;41413;52.770;6.892;2022-12-18T13:18:22;-1.50;99.90
52889;DHT22;41413;52.770;6.892;2022-12-18T13:23:35;-1.50;99.90
52889;DHT22;41413;52.770;6.892;2022-12-18T13:34:25;-1.50;99.90
52889;DHT22;41413;52.770;6.892;2022-12-18T13:39:43;-1.50;99.90
52889;DHT22;41413;52.770;6.892;2022-12-18T13:44:57;-1.50;99.90
52889;DHT22;41413;52.770;6.892;2022-12-18T13:47:31;-1.30;99.90
52889;DHT22;41413;52.770;6.892;2022-12-18T13:50:00;-1.50;99.90
52889;DHT22;41413;52.770;6.892;2022-12-18T13:52:33;-1.50;99.90
52889;DHT22;41413;52.770;6.892;2022-12-18T13:55:04;-1.50;99.90
52889;DHT22;41413;52.770;6.892;2022-12-18T13:57:34;-1.50;99.90
52889;DHT22;41413;52.770;6.892;2022-12-18T14:02:56;-1.50;99.90
52889;DHT22;41413;52.770;6.892;2022-12-18T14:05:33;-1.50;99.90
52889;DHT22;41413;52.770;6.892;2022-12-18T14:08:08;-1.50;99.90
52889;DHT22;41413;52.770;6.892;2022-12-18T14:10:40;-1.50;99.90
52889;DHT22;41413;52.770;6.892;2022-12-18T14:13:32;-1.60;99.90
52889;DHT22;41413;52.770;6.892;2022-12-18T14:16:02;-1.60;99.90
52889;DHT22;41413;52.770;6.892;2022-12-18T14:21:02;-1.70;99.90
52889;DHT22;41413;52.770;6.892;2022-12-18T14:23:41;-1.70;99.90
52889;DHT22;41413;52.770;6.892;2022-12-18T14:26:41;-1.70;99.90
52889;DHT22;41413;52.770;6.892;2022-12-18T14:29:28;-1.70;99.90
52889;DHT22;41413;52.770;6.892;2022-12-18T14:34:31;-1.80;99.90
52889;DHT22;41413;52.770;6.892;2022-12-18T14:36:57;-1.80;99.90
52889;DHT22;41413;52.770;6.892;2022-12-18T14:39:24;-1.80;99.90
52889;DHT22;41413;52.770;6.892;2022-12-18T14:41:52;-1.80;99.90
52889;DHT22;41413;52.770;6.892;2022-12-18T14:44:19;-1.80;99.90
52889;DHT22;41413;52.770;6.892;2022-12-18T14:46:49;-1.80;99.90
52889;DHT22;41413;52.770;6.892;2022-12-18T14:49:33;-1.80;99.90
52889;DHT22;41413;52.770;6.892;2022-12-18T14:52:05;-1.80;99.90
52889;DHT22;41413;52.770;6.892;2022-12-18T14:54:35;-1.80;99.90
52889;DHT22;41413;52.770;6.892;2022-12-18T14:57:21;-1.80;99.90
52889;DHT22;41413;52.770;6.892;2022-12-18T14:59:52;-1.80;99.90
52889;DHT22;41413;52.770;6.892;2022-12-18T15:02:26;-1.90;99.90
52889;DHT22;41413;52.770;6.892;2022-12-18T15:05:05;-1.80;99.90
52889;DHT22;41413;52.770;6.892;2022-12-18T15:07:43;-1.80;99.90
52889;DHT22;41413;52.770;6.892;2022-12-18T15:12:46;-1.80;99.90
52889;DHT22;41413;52.770;6.892;2022-12-18T15:20:45;-1.80;99.90
52889;DHT22;41413;52.770;6.892;2022-12-18T15:25:42;-1.80;99.90
52889;DHT22;41413;52.770;6.892;2022-12-18T15:36:20;-1.80;99.90
52889;DHT22;41413;52.770;6.892;2022-12-18T15:38:54;-1.80;99.90
52889;DHT22;41413;52.770;6.892;2022-12-18T15:41:35;-1.80;99.90
52889;DHT22;41413;52.770;6.892;2022-12-18T15:44:16;-1.10;99.90
52889;DHT22;41413;52.770;6.892;2022-12-18T15:46:47;-1.80;99.90
52889;DHT22;41413;52.770;6.892;2022-12-18T15:49:14;-1.80;99.90
52889;DHT22;41413;52.770;6.892;2022-12-18T15:51:41;-1.80;99.90
52889;DHT22;41413;52.770;6.892;2022-12-18T15:54:11;-1.80;99.90
52889;DHT22;41413;52.770;6.892;2022-12-18T15:56:39;-1.70;99.90
52889;DHT22;41413;52.770;6.892;2022-12-18T15:59:25;-1.70;99.90
52889;DHT22;41413;52.770;6.892;2022-12-18T16:01:52;-1.70;99.90
52889;DHT22;41413;52.770;6.892;2022-12-18T16:04:21;-1.70;99.90
52889;DHT22;41413;52.770;6.892;2022-12-18T16:06:49;-1.70;99.90
52889;DHT22;41413;52.770;6.892;2022-12-18T16:09:36;-1.70;99.90
52889;DHT22;41413;52.770;6.892;2022-12-18T16:12:03;-1.70;99.90
52889;DHT22;41413;52.770;6.892;2022-12-18T16:14:31;-1.70;99.90
52889;DHT22;41413;52.770;6.892;2022-12-18T16:17:00;-1.70;99.90
52889;DHT22;41413;52.770;6.892;2022-12-18T16:19:28;-1.70;99.90
52889;DHT22;41413;52.770;6.892;2022-12-18T16:21:56;-1.70;99.90
52889;DHT22;41413;52.770;6.892;2022-12-18T16:24:26;-1.70;99.90
52889;DHT22;41413;52.770;6.892;2022-12-18T16:26:54;-1.70;99.90
52889;DHT22;41413;52.770;6.892;2022-12-18T16:29:20;-1.70;99.90
52889;DHT22;41413;52.770;6.892;2022-12-18T16:31:51;-1.70;99.90
52889;DHT22;41413;52.770;6.892;2022-12-18T16:36:53;-1.70;99.90
52889;DHT22;41413;52.770;6.892;2022-12-18T16:39:25;-1.70;99.90
52889;DHT22;41413;52.770;6.892;2022-12-18T16:41:52;-1.70;99.90
52889;DHT22;41413;52.770;6.892;2022-12-18T16:44:20;-1.70;99.90
52889;DHT22;41413;52.770;6.892;2022-12-18T16:46:47;-1.70;99.90
52889;DHT22;41413;52.770;6.892;2022-12-18T16:49:16;-1.70;99.90
52889;DHT22;41413;52.770;6.892;2022-12-18T16:51:44;-1.70;99.90
52889;DHT22;41413;52.770;6.892;2022-12-18T16:54:12;-1.70;99.90
52889;DHT22;41413;52.770;6.892;2022-12-18T16:56:44;-1.60;99.90
52889;DHT22;41413;52.770;6.892;2022-12-18T16:59:13;-1.70;99.90
52889;DHT22;41413;52.770;6.892;2022-12-18T17:01:40;-1.60;99.90
52889;DHT22;41413;52.770;6.892;2022-12-18T17:04:08;-1.60;99.90
52889;DHT22;41413;52.770;6.892;2022-12-18T17:06:39;-1.60;99.90
52889;DHT22;41413;52.770;6.892;2022-12-18T17:09:10;-1.60;99.90
52889;DHT22;41413;52.770;6.892;2022-12-18T17:11:37;-1.60;99.90
52889;DHT22;41413;52.770;6.892;2022-12-18T17:14:17;-1.50;99.90
52889;DHT22;41413;52.770;6.892;2022-12-18T17:16:45;-1.50;99.90
52889;DHT22;41413;52.770;6.892;2022-12-18T17:19:13;-1.50;99.90
52889;DHT22;41413;52.770;6.892;2022-12-18T17:21:44;-1.50;99.90
52889;DHT22;41413;52.770;6.892;2022-12-18T17:24:12;-1.50;99.90
52889;DHT22;41413;52.770;6.892;2022-12-18T17:26:39;-1.50;99.90
52889;DHT22;41413;52.770;6.892;2022-12-18T17:29:06;-1.50;99.90
52889;DHT22;41413;52.770;6.892;2022-12-18T17:31:33;-1.50;99.90
52889;DHT22;41413;52.770;6.892;2022-12-18T17:34:02;-1.50;99.90
52889;DHT22;41413;52.770;6.892;2022-12-18T17:36:30;-1.60;99.90
52889;DHT22;41413;52.770;6.892;2022-12-18T17:38:59;-1.60;99.90
52889;DHT22;41413;52.770;6.892;2022-12-18T17:41:27;-1.50;99.90
52889;DHT22;41413;52.770;6.892;2022-12-18T17:44:00;-1.60;99.90
52889;DHT22;41413;52.770;6.892;2022-12-18T17:46:28;-1.60;99.90
52889;DHT22;41413;52.770;6.892;2022-12-18T17:48:57;-1.50;99.90
52889;DHT22;41413;52.770;6.892;2022-12-18T17:51:24;-1.50;99.90
52889;DHT22;41413;52.770;6.892;2022-12-18T17:53:51;-1.50;99.90
52889;DHT22;41413;52.770;6.892;2022-12-18T17:56:21;-1.50;99.90